createdAt,value
2022-11-21T00:00:43.410Z,14.20
2022-11-21T00:03:29.123Z,14.20
2022-11-21T00:06:15.467Z,14.20
2022-11-21T00:09:00.911Z,14.20
2022-11-21T00:11:46.542Z,14.20
2022-11-21T00:14:33.762Z,14.20
2022-11-21T00:17:19.446Z,14.20
2022-11-21T00:20:05.175Z,14.20
2022-11-21T00:22:50.854Z,14.20
2022-11-21T00:25:37.047Z,14.10
2022-11-21T00:28:22.883Z,14.20
2022-11-21T00:31:08.682Z,14.10
2022-11-21T00:33:54.136Z,14.10
2022-11-21T00:36:39.776Z,14.10
2022-11-21T00:39:25.154Z,14.10
2022-11-21T00:42:10.670Z,14.10
2022-11-21T00:44:56.229Z,14.10
2022-11-21T00:47:42.242Z,14.10
2022-11-21T00:50:27.983Z,14.10
2022-11-21T00:53:13.434Z,14.10
2022-11-21T00:55:59.120Z,14.10
2022-11-21T00:58:44.765Z,14.10
2022-11-21T01:01:30.287Z,14.10
2022-11-21T01:04:16.078Z,14.10
2022-11-21T01:07:01.898Z,14.10
2022-11-21T01:09:48.221Z,14.10
2022-11-21T01:12:33.702Z,14.10
2022-11-21T01:15:19.067Z,14.10
2022-11-21T01:18:04.719Z,14.10
2022-11-21T01:20:50.164Z,14.10
2022-11-21T01:23:35.684Z,14.10
2022-11-21T01:26:24.108Z,14.10
2022-11-21T01:29:09.547Z,14.10
2022-11-21T01:31:55.218Z,14.10
2022-11-21T01:34:40.843Z,14.10
2022-11-21T01:37:26.445Z,14.10
2022-11-21T01:40:12.767Z,14.00
2022-11-21T01:43:12.068Z,14.00
2022-11-21T01:46:03.823Z,14.00
2022-11-21T01:49:03.229Z,14.00
2022-11-21T01:52:11.798Z,14.00
2022-11-21T01:55:05.419Z,14.00
2022-11-21T01:57:51.490Z,14.00
2022-11-21T02:00:40.471Z,14.00
2022-11-21T02:03:29.172Z,14.00
2022-11-21T02:06:14.764Z,14.00
2022-11-21T02:09:01.658Z,14.00
2022-11-21T02:11:52.358Z,14.00
2022-11-21T02:14:40.071Z,14.00
2022-11-21T02:17:27.127Z,14.00
2022-11-21T02:20:18.035Z,14.00
2022-11-21T02:23:25.194Z,14.00
2022-11-21T02:26:11.078Z,14.00
2022-11-21T02:28:58.661Z,14.00
2022-11-21T02:31:44.141Z,13.90
2022-11-21T02:34:29.788Z,13.90
2022-11-21T02:37:16.605Z,13.90
2022-11-21T02:40:06.548Z,13.90
2022-11-21T02:43:10.183Z,13.90
2022-11-21T02:45:56.321Z,13.90
2022-11-21T02:48:42.118Z,13.90
2022-11-21T02:51:27.775Z,13.90
2022-11-21T02:54:13.314Z,13.90
2022-11-21T02:56:58.964Z,13.90
2022-11-21T02:59:44.402Z,13.90
2022-11-21T03:02:29.773Z,13.90
2022-11-21T03:05:17.130Z,13.90
2022-11-21T03:08:03.452Z,13.90
2022-11-21T03:10:48.993Z,13.90
2022-11-21T03:13:34.442Z,13.90
2022-11-21T03:16:20.219Z,13.90
2022-11-21T03:19:05.770Z,13.90
2022-11-21T03:21:51.235Z,13.90
2022-11-21T03:24:36.729Z,13.90
2022-11-21T03:27:22.122Z,13.90
2022-11-21T03:30:08.415Z,13.90
2022-11-21T03:32:57.781Z,13.90
2022-11-21T03:35:43.588Z,13.90
2022-11-21T03:38:29.327Z,13.90
2022-11-21T03:41:29.797Z,13.90
2022-11-21T03:44:15.604Z,13.90
2022-11-21T03:47:01.094Z,13.80
2022-11-21T03:49:46.545Z,13.80
2022-11-21T03:52:32.089Z,13.80
2022-11-21T03:55:17.950Z,13.80
2022-11-21T03:58:03.510Z,13.80
2022-11-21T04:00:49.320Z,13.80
2022-11-21T04:03:35.158Z,13.80
2022-11-21T04:06:22.779Z,13.80
2022-11-21T04:09:08.391Z,13.80
2022-11-21T04:11:53.754Z,13.80
2022-11-21T04:14:39.319Z,13.80
2022-11-21T04:17:24.795Z,13.80
2022-11-21T04:20:10.949Z,13.80
2022-11-21T04:23:33.915Z,13.80
2022-11-21T04:26:31.879Z,13.80
2022-11-21T04:29:17.398Z,13.80
2022-11-21T04:32:02.866Z,13.80
2022-11-21T04:34:48.197Z,13.80
2022-11-21T04:37:34.031Z,13.80
2022-11-21T04:40:19.729Z,13.80
2022-11-21T04:43:05.267Z,13.80
2022-11-21T04:45:50.962Z,13.80
2022-11-21T04:48:36.408Z,13.80
2022-11-21T04:51:21.937Z,13.80
2022-11-21T04:54:07.609Z,13.80
2022-11-21T04:56:52.862Z,13.80
2022-11-21T04:59:38.281Z,13.80
2022-11-21T05:02:24.246Z,13.80
2022-11-21T05:05:10.485Z,13.80
2022-11-21T05:07:56.124Z,13.70
2022-11-21T05:11:01.796Z,13.70
2022-11-21T05:13:47.308Z,13.70
2022-11-21T05:16:34.119Z,13.70
2022-11-21T05:19:19.840Z,13.70
2022-11-21T05:22:05.257Z,13.70
2022-11-21T05:24:50.789Z,13.70
2022-11-21T05:27:36.286Z,13.70
2022-11-21T05:30:21.792Z,13.70
2022-11-21T05:33:07.286Z,13.70
2022-11-21T05:35:52.755Z,13.70
2022-11-21T05:38:38.131Z,13.70
2022-11-21T05:41:23.673Z,13.70
2022-11-21T05:44:09.303Z,13.70
2022-11-21T05:46:54.751Z,13.70
2022-11-21T05:49:40.392Z,13.70
2022-11-21T05:52:25.866Z,13.70
2022-11-21T05:55:11.403Z,13.70
2022-11-21T05:58:00.943Z,13.70
2022-11-21T06:00:46.576Z,13.70
2022-11-21T06:03:35.839Z,13.70
2022-11-21T06:06:24.882Z,13.70
2022-11-21T06:09:11.034Z,13.70
2022-11-21T06:11:56.366Z,13.70
2022-11-21T06:14:41.846Z,13.70
2022-11-21T06:17:27.499Z,13.70
2022-11-21T06:20:12.896Z,13.70
2022-11-21T06:22:58.397Z,13.70
2022-11-21T06:25:44.327Z,13.70
2022-11-21T06:28:35.266Z,13.70
2022-11-21T06:31:26.330Z,13.70
2022-11-21T06:34:12.043Z,13.70
2022-11-21T06:36:57.754Z,13.70
2022-11-21T06:39:43.656Z,13.70
2022-11-21T06:42:29.329Z,13.70
2022-11-21T06:45:15.096Z,13.70
2022-11-21T06:48:05.077Z,13.70
2022-11-21T06:50:51.990Z,13.70
2022-11-21T06:53:38.020Z,13.80
2022-11-21T06:56:29.016Z,13.70
2022-11-21T06:59:14.635Z,13.70
2022-11-21T07:02:00.640Z,13.60
2022-11-21T07:04:46.526Z,13.60
2022-11-21T07:07:32.502Z,13.60
2022-11-21T07:10:18.499Z,13.60
2022-11-21T07:13:22.196Z,13.60
2022-11-21T07:16:10.538Z,13.60
2022-11-21T07:18:56.415Z,13.60
2022-11-21T07:21:43.150Z,13.70
2022-11-21T07:24:29.033Z,13.70
2022-11-21T07:27:14.529Z,13.70
2022-11-21T07:30:00.345Z,13.70
2022-11-21T07:32:46.452Z,13.70
2022-11-21T07:35:33.545Z,13.70
2022-11-21T07:38:19.279Z,13.70
2022-11-21T07:41:05.407Z,13.70
2022-11-21T07:43:51.243Z,13.70
2022-11-21T07:46:37.187Z,13.70
2022-11-21T07:49:23.366Z,13.70
2022-11-21T07:52:08.936Z,13.70
2022-11-21T07:54:54.758Z,13.70
2022-11-21T07:57:40.496Z,13.60
2022-11-21T08:00:27.297Z,13.60
2022-11-21T08:03:13.661Z,13.70
2022-11-21T08:06:02.880Z,13.70
2022-11-21T08:08:52.090Z,13.70
2022-11-21T08:11:37.691Z,13.70
2022-11-21T08:14:23.517Z,13.70
2022-11-21T08:17:08.962Z,13.70
2022-11-21T08:19:54.504Z,13.70
2022-11-21T08:22:42.913Z,13.70
2022-11-21T08:25:28.341Z,13.70
2022-11-21T08:28:14.132Z,13.80
2022-11-21T08:31:04.106Z,13.80
2022-11-21T08:33:49.740Z,13.80
2022-11-21T08:36:35.527Z,13.90
2022-11-21T08:39:20.915Z,13.90
2022-11-21T08:42:06.507Z,13.90
2022-11-21T08:44:52.742Z,14.00
2022-11-21T08:47:38.239Z,14.00
2022-11-21T08:50:24.717Z,14.00
2022-11-21T08:53:13.044Z,14.00
2022-11-21T08:56:03.917Z,14.00
2022-11-21T08:58:50.318Z,14.10
2022-11-21T09:01:35.730Z,14.10
2022-11-21T09:04:21.116Z,14.10
2022-11-21T09:07:06.696Z,14.10
2022-11-21T09:09:52.289Z,14.10
2022-11-21T09:12:37.828Z,14.10
2022-11-21T09:15:41.628Z,14.10
2022-11-21T09:18:26.991Z,14.10
2022-11-21T09:21:16.733Z,14.10
2022-11-21T09:24:02.512Z,14.20
2022-11-21T09:26:48.014Z,14.20
2022-11-21T09:29:33.391Z,14.20
2022-11-21T09:32:19.022Z,14.20
2022-11-21T09:35:05.006Z,14.30
2022-11-21T09:37:52.037Z,14.30
2022-11-21T09:40:44.020Z,14.40
2022-11-21T09:44:13.384Z,14.50
2022-11-21T09:47:17.118Z,14.60
2022-11-21T09:50:15.077Z,14.60
2022-11-21T09:53:06.272Z,14.70
2022-11-21T09:56:20.085Z,14.70
2022-11-21T09:59:24.341Z,14.70
2022-11-21T10:02:19.649Z,14.70
2022-11-21T10:05:13.411Z,14.70
2022-11-21T10:08:05.265Z,14.60
2022-11-21T10:10:56.406Z,14.70
2022-11-21T10:14:03.051Z,14.60
2022-11-21T10:17:00.001Z,14.60
2022-11-21T10:19:58.082Z,14.70
2022-11-21T10:23:00.321Z,14.60
2022-11-21T10:25:56.326Z,14.60
2022-11-21T10:29:12.506Z,14.60
2022-11-21T10:32:03.774Z,14.60
2022-11-21T10:34:53.813Z,14.60
2022-11-21T10:37:42.335Z,14.70
2022-11-21T10:40:37.046Z,14.80
2022-11-21T10:43:53.128Z,14.90
2022-11-21T10:46:38.593Z,15.00
2022-11-21T10:49:25.974Z,15.10
2022-11-21T10:52:11.443Z,15.20
2022-11-21T10:55:03.044Z,15.20
2022-11-21T10:57:50.768Z,15.30
2022-11-21T11:00:37.136Z,15.30
2022-11-21T11:03:22.797Z,15.30
2022-11-21T11:06:11.003Z,15.30
2022-11-21T11:08:56.570Z,15.30
2022-11-21T11:11:41.963Z,15.30
2022-11-21T11:14:33.731Z,15.40
2022-11-21T11:17:31.966Z,15.30
2022-11-21T11:20:39.559Z,15.40
2022-11-21T11:23:27.678Z,15.40
2022-11-21T11:26:27.959Z,15.40
2022-11-21T11:29:30.272Z,15.40
2022-11-21T11:32:21.890Z,15.40
2022-11-21T11:35:13.722Z,15.50
2022-11-21T11:38:06.315Z,15.50
2022-11-21T11:40:53.227Z,15.50
2022-11-21T11:44:28.203Z,15.50
2022-11-21T11:47:30.428Z,15.60
2022-11-21T11:50:24.825Z,15.00
2022-11-21T11:53:13.302Z,15.70
2022-11-21T11:56:08.254Z,15.80
2022-11-21T11:59:28.817Z,15.90
2022-11-21T12:02:29.415Z,15.90
2022-11-21T12:05:33.511Z,15.90
2022-11-21T12:08:41.336Z,15.90
2022-11-21T12:11:49.263Z,15.90
2022-11-21T12:15:16.069Z,15.90
2022-11-21T12:18:08.853Z,15.90
2022-11-21T12:21:00.389Z,15.90
2022-11-21T12:24:05.769Z,15.90
2022-11-21T12:27:02.608Z,15.90
2022-11-21T12:30:23.602Z,15.90
2022-11-21T12:33:38.178Z,15.90
2022-11-21T12:36:37.802Z,15.90
2022-11-21T12:39:34.664Z,15.90
2022-11-21T12:42:50.691Z,15.80
2022-11-21T12:46:02.768Z,15.80
2022-11-21T12:49:16.118Z,15.80
2022-11-21T12:52:32.262Z,15.80
2022-11-21T12:55:20.115Z,15.80
2022-11-21T12:58:32.573Z,15.80
2022-11-21T13:01:31.935Z,15.80
2022-11-21T13:04:31.605Z,15.80
2022-11-21T13:07:19.526Z,15.70
2022-11-21T13:10:06.048Z,15.70
2022-11-21T13:12:59.467Z,15.70
2022-11-21T13:15:57.067Z,15.60
2022-11-21T13:18:49.898Z,15.60
2022-11-21T13:21:49.839Z,15.60
2022-11-21T13:24:44.936Z,15.60
2022-11-21T13:27:44.668Z,16.70
2022-11-21T13:30:30.784Z,15.50
2022-11-21T13:33:34.680Z,15.50
2022-11-21T13:36:29.478Z,15.50
2022-11-21T13:39:18.168Z,15.40
2022-11-21T13:42:28.086Z,15.40
2022-11-21T13:45:47.111Z,15.40
2022-11-21T13:48:52.407Z,15.40
2022-11-21T13:51:52.397Z,15.40
2022-11-21T13:55:08.387Z,15.40
2022-11-21T13:58:18.122Z,15.40
2022-11-21T14:01:46.357Z,15.50
2022-11-21T14:04:35.443Z,15.40
2022-11-21T14:07:28.123Z,15.40
2022-11-21T14:10:25.704Z,15.40
2022-11-21T14:13:23.124Z,15.40
2022-11-21T14:16:28.406Z,15.50
2022-11-21T14:19:19.062Z,15.40
2022-11-21T14:22:04.780Z,15.40
2022-11-21T14:24:52.375Z,15.40
2022-11-21T14:27:45.348Z,15.40
2022-11-21T14:30:34.322Z,15.40
2022-11-21T14:33:30.486Z,15.50
2022-11-21T14:36:19.933Z,15.40
2022-11-21T14:42:17.135Z,15.40
2022-11-21T14:45:26.950Z,15.40
2022-11-21T14:48:13.322Z,15.40
2022-11-21T14:51:01.834Z,15.40
2022-11-21T14:53:49.415Z,15.40
2022-11-21T14:56:35.317Z,15.40
2022-11-21T14:59:33.468Z,15.40
2022-11-21T15:02:22.211Z,15.40
2022-11-21T15:05:21.249Z,15.40
2022-11-21T15:08:55.850Z,15.40
2022-11-21T15:11:37.678Z,15.40
2022-11-21T15:14:44.018Z,16.90
2022-11-21T15:17:30.287Z,15.40
2022-11-21T15:20:15.984Z,15.40
2022-11-21T15:23:02.650Z,15.50
2022-11-21T15:25:48.350Z,15.40
2022-11-21T15:28:33.890Z,15.40
2022-11-21T15:31:23.494Z,15.40
2022-11-21T15:34:34.207Z,15.40
2022-11-21T15:37:17.509Z,15.40
2022-11-21T15:40:03.418Z,15.40
2022-11-21T15:42:50.372Z,15.40
2022-11-21T15:45:36.119Z,15.40
2022-11-21T15:48:23.695Z,15.40
2022-11-21T15:51:11.057Z,15.30
2022-11-21T15:53:56.798Z,15.40
2022-11-21T15:56:42.886Z,15.40
2022-11-21T15:59:28.962Z,15.30
2022-11-21T16:02:15.081Z,15.30
2022-11-21T16:05:01.162Z,15.30
2022-11-21T16:07:48.506Z,15.30
2022-11-21T16:10:36.303Z,15.30
2022-11-21T16:13:21.920Z,15.30
2022-11-21T16:16:11.944Z,15.30
2022-11-21T16:18:58.107Z,15.30
2022-11-21T16:21:43.850Z,15.30
2022-11-21T16:24:29.742Z,15.30
2022-11-21T16:27:15.063Z,15.30
2022-11-21T16:30:01.076Z,15.30
2022-11-21T16:32:47.757Z,15.30
2022-11-21T16:35:33.252Z,15.30
2022-11-21T16:38:18.667Z,15.30
2022-11-21T16:41:05.362Z,15.30
2022-11-21T16:43:53.670Z,15.30
2022-11-21T16:46:43.374Z,15.30
2022-11-21T16:49:29.270Z,15.30
2022-11-21T16:52:15.069Z,15.20
2022-11-21T16:55:01.891Z,15.30
2022-11-21T16:57:47.697Z,15.20
2022-11-21T17:00:33.576Z,15.20
2022-11-21T17:03:19.442Z,15.30
2022-11-21T17:06:05.839Z,15.20
2022-11-21T17:08:51.545Z,15.20
2022-11-21T17:11:37.260Z,15.20
2022-11-21T17:14:22.646Z,15.20
2022-11-21T17:17:08.454Z,15.20
2022-11-21T17:19:54.615Z,15.20
2022-11-21T17:22:40.327Z,15.20
2022-11-21T17:25:25.996Z,15.20
2022-11-21T17:28:11.523Z,15.10
2022-11-21T17:30:57.297Z,15.20
2022-11-21T17:33:43.518Z,15.20
2022-11-21T17:36:30.652Z,15.20
2022-11-21T17:39:18.061Z,15.10
2022-11-21T17:42:03.710Z,15.20
2022-11-21T17:44:49.493Z,15.10
2022-11-21T17:47:35.078Z,15.10
2022-11-21T17:50:20.522Z,15.10
2022-11-21T17:53:06.120Z,15.10
2022-11-21T17:55:57.688Z,15.10
2022-11-21T17:58:43.391Z,15.10
2022-11-21T18:01:29.661Z,15.10
2022-11-21T18:04:17.479Z,15.10
2022-11-21T18:07:03.289Z,15.10
2022-11-21T18:09:48.772Z,15.10
2022-11-21T18:12:34.270Z,15.10
2022-11-21T18:15:19.659Z,15.10
2022-11-21T18:18:05.287Z,15.10
2022-11-21T18:20:51.380Z,15.10
2022-11-21T18:23:36.887Z,15.10
2022-11-21T18:26:25.370Z,15.10
2022-11-21T18:29:35.217Z,15.10
2022-11-21T18:32:16.615Z,15.10
2022-11-21T18:35:02.162Z,15.10
2022-11-21T18:37:47.634Z,15.10
2022-11-21T18:40:33.111Z,15.10
2022-11-21T18:43:18.741Z,15.10
2022-11-21T18:46:05.615Z,15.00
2022-11-21T18:49:08.203Z,15.00
2022-11-21T18:51:54.017Z,15.00
2022-11-21T18:54:40.023Z,15.10
2022-11-21T18:57:25.654Z,15.10
2022-11-21T19:00:12.220Z,15.00
2022-11-21T19:02:57.675Z,15.00
2022-11-21T19:05:43.163Z,15.00
2022-11-21T19:08:28.970Z,15.10
2022-11-21T19:11:15.732Z,15.10
2022-11-21T19:14:01.354Z,15.00
2022-11-21T19:16:47.155Z,15.10
2022-11-21T19:19:34.642Z,15.00
2022-11-21T19:22:20.799Z,15.00
2022-11-21T19:25:06.575Z,15.00
2022-11-21T19:27:52.042Z,15.00
2022-11-21T19:30:37.524Z,15.00
2022-11-21T19:33:23.794Z,15.10
2022-11-21T19:36:12.799Z,15.00
2022-11-21T19:38:58.606Z,15.10
2022-11-21T19:41:44.083Z,15.00
2022-11-21T19:44:29.876Z,15.00
2022-11-21T19:47:15.327Z,15.00
2022-11-21T19:50:01.117Z,15.00
2022-11-21T19:52:46.879Z,15.00
2022-11-21T19:55:32.362Z,15.00
2022-11-21T19:58:18.185Z,15.00
2022-11-21T20:01:15.641Z,15.00
2022-11-21T20:04:03.681Z,15.00
2022-11-21T20:06:49.191Z,15.10
2022-11-21T20:09:34.975Z,15.00
2022-11-21T20:12:20.755Z,15.10
2022-11-21T20:15:06.673Z,15.10
2022-11-21T20:17:52.762Z,15.10
2022-11-21T20:20:38.357Z,15.10
2022-11-21T20:23:23.850Z,15.10
2022-11-21T20:26:10.286Z,15.10
2022-11-21T20:28:56.707Z,15.10
2022-11-21T20:31:42.234Z,15.10
2022-11-21T20:34:28.516Z,15.10
2022-11-21T20:37:14.379Z,15.00
2022-11-21T20:40:00.049Z,15.00
2022-11-21T20:42:45.532Z,15.10
2022-11-21T20:48:36.714Z,15.10
2022-11-21T20:54:28.667Z,15.10
2022-11-21T20:57:15.487Z,15.10
2022-11-21T21:00:01.718Z,15.10
2022-11-21T21:02:51.522Z,16.60
2022-11-21T21:05:39.323Z,15.10
2022-11-21T21:08:26.038Z,15.10
2022-11-21T21:11:36.732Z,15.10
2022-11-21T21:14:20.738Z,15.10
2022-11-21T21:17:06.280Z,15.10
2022-11-21T21:19:52.182Z,15.10
2022-11-21T21:22:39.589Z,15.10
2022-11-21T21:25:25.023Z,15.10
2022-11-21T21:28:10.544Z,15.10
2022-11-21T21:30:55.964Z,15.10
2022-11-21T21:33:42.014Z,15.10
2022-11-21T21:36:28.395Z,15.10
2022-11-21T21:39:14.427Z,15.10
2022-11-21T21:42:00.140Z,15.10
2022-11-21T21:44:45.561Z,15.10
2022-11-21T21:47:31.032Z,15.10
2022-11-21T21:50:16.713Z,15.10
2022-11-21T21:53:03.093Z,15.10
2022-11-21T21:55:48.762Z,15.10
2022-11-21T21:58:36.114Z,15.10
2022-11-21T22:01:24.245Z,15.10
2022-11-21T22:04:11.428Z,15.10
2022-11-21T22:06:58.285Z,15.10
2022-11-21T22:09:43.662Z,15.10
2022-11-21T22:12:29.481Z,15.20
2022-11-21T22:15:15.439Z,15.10
2022-11-21T22:18:01.315Z,15.10
2022-11-21T22:20:46.944Z,15.00
2022-11-21T22:23:34.106Z,15.00
2022-11-21T22:26:19.985Z,15.00
2022-11-21T22:29:06.198Z,15.00
2022-11-21T22:31:51.950Z,15.00
2022-11-21T22:34:37.784Z,15.00
2022-11-21T22:37:23.578Z,15.00
2022-11-21T22:40:09.648Z,15.10
2022-11-21T22:42:55.472Z,15.10
2022-11-21T22:45:40.823Z,15.10
2022-11-21T22:48:26.315Z,15.10
2022-11-21T22:51:18.177Z,15.10
2022-11-21T22:54:03.767Z,15.10
2022-11-21T22:56:49.115Z,15.00
2022-11-21T22:59:34.639Z,15.00
2022-11-21T23:02:20.059Z,15.00
2022-11-21T23:05:05.832Z,15.00
2022-11-21T23:07:51.516Z,14.90
2022-11-21T23:10:37.223Z,14.90
2022-11-21T23:13:23.073Z,14.80
2022-11-21T23:16:10.069Z,14.90
2022-11-21T23:18:56.761Z,14.80
2022-11-21T23:21:42.859Z,14.80
2022-11-21T23:24:28.706Z,14.80
2022-11-21T23:27:14.056Z,14.80
2022-11-21T23:29:59.543Z,14.80
2022-11-21T23:32:44.943Z,14.70
2022-11-21T23:35:30.549Z,14.70
2022-11-21T23:38:17.009Z,14.70
2022-11-21T23:41:02.517Z,14.70
2022-11-21T23:43:48.048Z,14.70
2022-11-21T23:46:33.473Z,14.70
2022-11-21T23:49:19.026Z,14.60
2022-11-21T23:52:04.664Z,14.70
2022-11-21T23:54:50.339Z,14.60
2022-11-21T23:57:35.850Z,14.60
